Aggieland, Texas
Current Conditions -  °F | °C
As of 9:53 AM on Saturday 20 Dec 2014 (Local Time) from KCLL Reporting Station
Haze Haze  
Wind Chill: 50°   Ceiling: 700
Heat Index: 50°   Visibility: 6mi
Dew Point: 47°   Wind: 6mph
Humidity: 89%   Direction: 20°NNE
Pressure: 30.24"   Gusts: NA
Location:  30.5943°N, 96.3574°W
Report Text: KCLL 201553Z 02005KT 6SM BR OVC007 10/08 A3024 RMK AO2 SLP238 T01000083
Loading
Personal Weather Stations






























Interactive Weather Map New forecast layout! Learn more

10-Day Weather Forecast

Advertisements
Track Severe Weather on mobile